Latest Coastal Weather Observations for Point Perpendicular

IDN60701

Issued at 9:21 pm EDT Saturday 22 February 2020 (issued every 10 minutes, with the page automatically refreshed every 10 minutes)

About coastal observations | Map of coastal stations | Coastal observations for NSW | Marine services | Other Formats
Station Details ID: 068151 Name: POINT PERPENDICULAR AWS Lat: -35.09 Lon: 150.80 Height: 85.0 m
Data from the previous 72 hours. | See also: Recent months at Point Perpendicular
Date/Time
EDT
Wind Sea
Height
m
Swell Vis
km
Cloud Weather Temp
°C
Press
hPa
Rain since
9am
mm
Dir  Spd
kts
Gust
kts
Height
m
Period
s
Dir
22/09:00pm NE 9 14 - - - - - - - 19.3 1024.6 0.0
22/08:30pm NE 8 12 - - - - - - - 19.7 1024.3 0.0
22/08:00pm NE 7 11 - - - - - - - 20.1 1023.9 0.0
22/07:30pm NE 7 11 - - - - - - - 20.1 1023.8 0.0
22/07:00pm NE 7 10 - - - - - - - 20.2 1023.6 0.0
22/06:30pm ENE 7 11 - - - - - - - 20.1 1023.3 0.0
22/06:00pm ENE 8 12 - - - - - - - 20.4 1023.4 0.0
22/05:30pm ENE 7 10 - - - - - - - 20.7 1023.3 0.0
22/05:00pm ENE 8 11 - - - - - - - 20.7 1023.3 0.0
22/04:30pm ENE 8 11 - - - - - - - 20.7 1023.3 0.0
22/04:00pm ENE 7 12 - - - - - - - 20.5 1023.5 0.0
22/03:30pm ENE 8 12 - - - - - - - 20.4 1023.5 0.0
22/03:00pm ENE 8 11 - - - - - - - 20.3 1023.7 0.0
22/02:30pm E 6 9 - - - - - - - 20.2 1024.0 0.0
22/02:00pm ESE 5 9 - - - - - - - 19.9 1024.4 0.0
22/01:30pm ESE 7 11 - - - - - - - 19.5 1024.6 0.0
22/01:00pm ESE 5 7 - - - - - - - 19.1 1024.8 0.0
22/12:30pm SE 6 9 - - - - - - - 19.3 1025.1 0.0
22/12:00pm SSE 2 5 - - - - - - - 20.2 1025.3 0.0
22/11:30am SSW 5 7 - - - - - - - 19.6 1025.3 0.0
22/11:00am SW 8 12 - - - - - - - 19.4 1025.2 0.0
22/10:30am S 8 11 - - - - - - - 19.2 1024.9 0.0
22/10:00am SSW 7 11 - - - - - - - 19.0 1024.6 0.0
22/09:30am WSW 7 10 - - - - - - - 18.4 1024.6 0.0
22/09:00am SW 7 11 - - - - - - - 18.4 1024.4 0.4
22/08:30am WSW 7 11 - - - - - - - 18.1 1024.0 0.4
22/08:00am WSW 7 11 - - - - - - - 17.7 1023.6 0.4
22/07:30am WSW 6 9 - - - - - - - 17.4 1023.3 0.4
22/07:00am WSW 6 11 - - - - - - - 17.6 1023.0 0.4
22/06:30am SW 6 10 - - - - - - - 17.6 1022.7 0.4
22/06:00am SW 7 13 - - - - - - - 17.6 1022.5 0.4
22/05:30am SW 7 11 - - - - - - - 17.5 1022.3 0.4
22/05:00am WSW 6 11 - - - - - - - 17.5 1022.2 0.4
22/04:30am WSW 5 7 - - - - - - - 17.7 1021.9 0.4
22/04:00am SW 6 9 - - - - - - - 17.4 1021.9 0.4
22/03:30am WSW 5 9 - - - - - - - 17.5 1022.1 0.4
22/03:00am WSW 4 7 - - - - - - - 19.2 1022.1 0.4
22/02:30am SSW 4 6 - - - - - - - 19.2 1022.0 0.4
22/02:00am SSE 4 6 - - - - - - - 19.2 1022.1 0.4
22/01:30am SSE 5 8 - - - - - - - 18.3 1022.3 0.4
22/01:00am S 9 13 - - - - - - - 18.0 1022.3 0.4
22/12:30am S 9 13 - - - - - - - 18.1 1022.0 0.4
22/12:00am SSW 9 15 - - - - - - Recent precip. 17.7 1021.7 0.4
 
Date/Time
EDT
Wind Sea
Height
m
Swell Vis
km
Cloud Weather Temp
°C
Press
hPa
Rain since
9am
mm
Dir  Spd
kts
Gust
kts
Height
m
Period
s
Dir
21/11:30pm S 11 16 - - - - - - - 17.3 1021.6 0.4
21/11:00pm S 11 17 - - - - - - - 17.7 1021.5 0.2
21/10:30pm S 7 11 - - - - - - - 18.8 1021.3 0.2
21/10:00pm SSE 7 13 - - - - - - - 18.6 1020.9 0.2
21/09:30pm SSE 9 13 - - - - - - - 18.5 1020.9 0.2
21/09:00pm S 8 13 - - - - - - Recent precip. 18.0 1020.6 0.2
21/08:30pm SSE 8 14 - - - - - - - 18.0 1020.1 0.2
21/08:00pm SSE 8 12 - - - - - - - 17.7 1019.8 0.0
21/07:30pm SSE 8 13 - - - - - - - 19.0 1019.0 0.0
21/07:00pm SSE 9 12 - - - - - - - 19.0 1018.6 0.0
21/06:30pm SSE 9 15 - - - - - - - 19.4 1018.0 0.0
21/06:00pm SSE 8 13 - - - - - - - 19.4 1017.6 0.0
21/05:30pm SE 8 13 - - - - - - - 19.4 1017.3 0.0
21/05:00pm SSE 8 12 - - - - - - - 19.5 1017.0 0.0
21/04:30pm SSE 9 13 - - - - - - - 19.4 1017.0 0.0
21/04:00pm SE 8 12 - - - - - - - 19.4 1016.8 0.0
21/03:30pm SE 10 15 - - - - - - - 19.9 1016.8 0.0
21/03:00pm SSE 8 11 - - - - - - - 19.6 1017.0 0.0
21/02:30pm SSE 7 12 - - - - - - - 20.4 1017.1 0.0
21/02:00pm SSE 9 13 - - - - - - - 20.8 1017.0 0.0
21/01:30pm SSE 7 12 - - - - - - - 21.6 1017.1 0.0
21/01:00pm SSE 8 12 - - - - - - - 20.4 1017.1 0.0
21/12:30pm SSE 8 12 - - - - - - - 20.6 1017.1 0.0
21/12:00pm SE 6 8 - - - - - - - 20.1 1017.2 0.0
21/11:30am SSE 6 9 - - - - - - - 20.0 1017.6 0.0
21/11:00am SSE 6 9 - - - - - - - 19.7 1017.5 0.0
21/10:30am SSE 6 9 - - - - - - - 19.6 1017.4 0.0
21/10:00am S 6 8 - - - - - - - 19.4 1017.1 0.0
21/09:30am SSE 3 6 - - - - - - - 19.6 1016.8 0.0
21/09:00am SSE 4 6 - - - - - - - 18.8 1016.8 0.0
21/08:30am SSE 3 5 - - - - - - - 18.5 1016.6 0.0
21/08:00am SSE 3 5 - - - - - - - 18.3 1016.2 0.0
21/07:30am SSE 3 5 - - - - - - - 18.0 1015.9 0.0
21/07:00am S 4 7 - - - - - - - 17.7 1015.7 0.0
21/06:30am SSE 5 7 - - - - - - - 18.0 1015.4 0.0
21/06:00am SSE 4 6 - - - - - - - 17.9 1015.2 0.0
21/05:30am SSE 5 7 - - - - - - - 18.2 1014.7 0.0
21/05:00am SSE 4 7 - - - - - - - 18.2 1014.5 0.0
21/04:30am SSE 4 7 - - - - - - - 17.8 1014.3 0.0
21/04:00am S 5 7 - - - - - - - 17.8 1014.4 0.0
21/03:30am CALM 0 2 - - - - - - - 18.1 1014.5 0.0
21/03:00am SW 2 3 - - - - - - - 17.9 1014.6 0.0
21/02:30am NW 2 3 - - - - - - - 18.7 1014.8 0.0
21/02:00am SE 1 3 - - - - - - - 19.2 1014.8 0.0
21/01:30am SSE 3 5 - - - - - - - 19.2 1014.8 0.0
21/01:00am SE 5 8 - - - - - - - 19.3 1014.9 0.0
21/12:30am SE 4 6 - - - - - - - 19.5 1014.9 0.0
21/12:00am ESE 4 6 - - - - - - - 19.5 1014.9 0.0
 
Date/Time
EDT
Wind Sea
Height
m
Swell Vis
km
Cloud Weather Temp
°C
Press
hPa
Rain since
9am
mm
Dir  Spd
kts
Gust
kts
Height
m
Period
s
Dir
20/11:30pm SE 2 5 - - - - - - - 19.6 1014.8 0.0
20/11:00pm SE 5 8 - - - - - - - 19.7 1014.6 0.0
20/10:30pm SE 5 10 - - - - - - - 19.5 1014.7 0.0
20/10:00pm SSE 4 7 - - - - - - - 19.5 1014.7 0.0
20/09:30pm SSE 5 8 - - - - - - - 19.7 1014.4 0.0
20/09:00pm SSE 6 8 - - - - - - - 19.6 1013.9 0.0
20/08:30pm SSE 6 10 - - - - - - - 19.6 1013.5 0.0
20/08:00pm SSE 6 9 - - - - - - - 19.6 1013.0 0.0
20/07:30pm SSE 7 12 - - - - - - - 19.6 1012.5 0.0
20/07:00pm SSE 6 11 - - - - - - - 19.7 1012.2 0.0
20/06:30pm SSE 7 12 - - - - - - - 19.9 1012.0 0.0
20/06:00pm SSE 8 12 - - - - - - - 20.0 1011.7 0.0
20/05:30pm SSE 9 13 - - - - - - - 20.3 1011.4 0.0
20/05:00pm SSE 11 15 - - - - - - - 20.2 1011.2 0.0
20/04:30pm SSE 11 17 - - - - - - - 20.6 1011.2 0.0
20/04:00pm SSE 11 16 - - - - - - - 20.3 1011.1 0.0
20/03:30pm SSE 10 15 - - - - - - - 20.7 1011.0 0.0
20/03:00pm SSE 11 17 - - - - - - - 20.6 1011.0 0.0
20/02:30pm SSE 11 15 - - - - - - - 20.5 1011.1 0.0
20/02:00pm SSE 11 15 - - - - - - - 20.8 1011.4 0.0
20/01:30pm S 11 16 - - - - - - - 20.1 1011.5 0.0
20/01:00pm S 9 13 - - - - - - - 20.1 1011.5 0.0
20/12:30pm S 9 14 - - - - - - - 20.0 1011.8 0.0
20/12:00pm SSW 8 14 - - - - - - - 19.7 1011.9 0.0
20/11:30am SSW 9 13 - - - - - - - 19.5 1011.9 0.0
20/11:00am SSW 11 15 - - - - - - - 19.2 1011.8 0.0
20/10:30am SSW 9 13 - - - - - - - 19.0 1011.5 0.0
20/10:00am SSW 11 17 - - - - - - - 19.4 1011.2 0.0
20/09:30am SSW 9 16 - - - - - - - 19.0 1010.7 0.0
20/09:00am SSW 13 19 - - - - - - - 19.0 1010.4 2.0
20/08:30am SSW 12 19 - - - - - - - 19.0 1010.2 2.0
20/08:00am SSW 11 18 - - - - - - - 18.9 1009.7 2.0
20/07:30am SSW 12 19 - - - - - - - 18.8 1009.2 2.0
20/07:00am SSW 13 19 - - - - - - - 18.9 1008.5 2.0
20/06:30am SSW 13 18 - - - - - - - 18.9 1008.3 2.0
20/06:00am SW 11 16 - - - - - - - 19.0 1007.9 2.0
20/05:30am SSW 12 17 - - - - - - - 19.0 1007.6 2.0
20/05:00am SSW 11 18 - - - - - - - 19.0 1007.0 2.0
20/04:30am SSW 9 13 - - - - - - - 19.2 1007.0 2.0
20/04:00am SSW 9 12 - - - - - - - 19.2 1007.1 2.0
20/03:30am SSW 8 11 - - - - - - - 19.3 1006.7 2.0
20/03:00am SSW 8 12 - - - - - - - 19.4 1006.9 2.0
20/02:30am SW 3 5 - - - - - - - 19.0 1007.2 2.0
20/02:00am SW 4 4 - - - - - - - 19.1 1007.3 2.0
20/01:30am WSW 4 5 - - - - - - - 19.1 1007.4 2.0
20/01:00am W 2 3 - - - - - - - 18.7 1007.6 2.0
20/12:30am W 1 3 - - - - - - - 18.7 1007.8 2.0
20/12:00am WNW 2 3 - - - - - - - 17.9 1007.7 2.0
 
Date/Time
EDT
Wind Sea
Height
m
Swell Vis
km
Cloud Weather Temp
°C
Press
hPa
Rain since
9am
mm
Dir  Spd
kts
Gust
kts
Height
m
Period
s
Dir
19/11:30pm WNW 2 5 - - - - - - - 18.2 1007.5 2.0
19/11:00pm WNW 3 4 - - - - - - - 18.5 1007.5 2.0
19/10:30pm WNW 2 3 - - - - - - - 18.5 1007.6 2.0
19/10:00pm SW 1 2 - - - - - - - 18.1 1007.5 2.0
19/09:30pm WSW 7 12 - - - - - - - 18.7 1007.8 0.8

Other formats

Comma delimited format used in spreadsheet applications
http://www.bom.gov.au/fwo/IDN60701/IDN60701.95940.axf

JavaScript Object Notation format (JSON) in row-major order
http://www.bom.gov.au/fwo/IDN60701/IDN60701.95940.json

Data quality

Most of these data are generated automatically and are frequently updated. Quality checks on data are not normally performed. It is possible for incorrect values to appear. Refer to information at About Latest Weather Observations and please check the disclaimer before using these data.